createdAt,value
2019-04-07T00:00:01.284Z,99.90
2019-04-07T00:02:42.634Z,99.90
2019-04-07T00:05:23.274Z,99.90
2019-04-07T00:08:04.479Z,99.90
2019-04-07T00:10:45.832Z,99.90
2019-04-07T00:13:27.183Z,99.90
2019-04-07T00:16:07.660Z,99.90
2019-04-07T00:18:48.265Z,99.90
2019-04-07T00:21:29.224Z,99.90
2019-04-07T00:24:10.275Z,99.90
2019-04-07T00:26:51.431Z,99.90
2019-04-07T00:29:32.719Z,99.90
2019-04-07T00:32:14.117Z,99.90
2019-04-07T00:34:56.793Z,99.90
2019-04-07T00:37:38.444Z,99.90
2019-04-07T00:40:20.764Z,99.90
2019-04-07T00:43:02.124Z,99.90
2019-04-07T00:45:43.214Z,99.90
2019-04-07T00:48:24.385Z,99.90
2019-04-07T00:51:05.176Z,99.90
2019-04-07T00:53:46.374Z,99.90
2019-04-07T00:56:27.002Z,99.90
2019-04-07T00:59:08.786Z,99.90
2019-04-07T01:01:50.524Z,99.90
2019-04-07T01:04:31.886Z,99.90
2019-04-07T01:07:13.106Z,99.90
2019-04-07T01:09:54.433Z,99.90
2019-04-07T01:12:35.808Z,99.90
2019-04-07T01:15:17.618Z,99.90
2019-04-07T01:17:58.805Z,99.90
2019-04-07T01:20:39.674Z,99.90
2019-04-07T01:23:08.812Z,99.90
2019-04-07T01:25:57.335Z,99.90
2019-04-07T01:28:47.117Z,99.90
2019-04-07T01:31:37.370Z,99.90
2019-04-07T01:34:27.353Z,99.90
2019-04-07T01:37:16.703Z,99.90
2019-04-07T01:40:05.686Z,99.90
2019-04-07T01:46:30.564Z,99.90
2019-04-07T01:49:38.905Z,99.90
2019-04-07T01:52:46.911Z,99.90
2019-04-07T01:55:54.299Z,99.90
2019-04-07T01:59:01.563Z,99.90
2019-04-07T02:01:57.062Z,99.90
2019-04-07T02:04:56.555Z,99.90
2019-04-07T02:08:04.443Z,99.90
2019-04-07T02:11:12.762Z,99.90
2019-04-07T02:14:20.217Z,99.90
2019-04-07T02:17:27.496Z,99.90
2019-04-07T02:20:48.783Z,99.90
2019-04-07T02:23:57.596Z,99.90
2019-04-07T02:27:05.250Z,99.90
2019-04-07T02:30:13.039Z,99.90
2019-04-07T02:33:10.567Z,99.90
2019-04-07T02:36:25.714Z,99.90
2019-04-07T02:39:21.440Z,99.90
2019-04-07T02:42:22.786Z,99.90
2019-04-07T02:45:19.634Z,99.90
2019-04-07T02:48:11.366Z,99.90
2019-04-07T02:51:11.137Z,99.90
2019-04-07T02:54:11.557Z,99.90
2019-04-07T02:57:01.317Z,99.90
2019-04-07T03:00:07.652Z,99.90
2019-04-07T03:03:06.917Z,99.90
2019-04-07T03:06:08.856Z,99.90
2019-04-07T03:09:09.116Z,99.90
2019-04-07T03:11:59.592Z,99.90
2019-04-07T03:14:54.485Z,99.90
2019-04-07T03:18:00.522Z,99.90
2019-04-07T03:21:02.404Z,99.90
2019-04-07T03:23:54.457Z,99.90
2019-04-07T03:26:55.677Z,99.90
2019-04-07T03:29:55.456Z,99.90
2019-04-07T03:32:57.606Z,99.90
2019-04-07T03:35:52.476Z,99.90
2019-04-07T03:38:57.869Z,99.90
2019-04-07T03:41:47.118Z,99.90
2019-04-07T03:44:47.094Z,99.90
2019-04-07T03:47:23.493Z,99.90
2019-04-07T03:50:13.034Z,99.90
2019-04-07T03:53:00.617Z,99.90
2019-04-07T03:55:49.464Z,99.90
2019-04-07T03:58:41.555Z,99.90
2019-04-07T04:01:28.789Z,99.90
2019-04-07T04:04:24.415Z,99.90
2019-04-07T04:07:22.885Z,99.90
2019-04-07T04:10:00.977Z,99.90
2019-04-07T04:13:01.589Z,99.90
2019-04-07T04:15:38.214Z,99.90
2019-04-07T04:18:07.559Z,99.90
2019-04-07T04:20:37.246Z,99.90
2019-04-07T04:23:06.522Z,99.90
2019-04-07T04:25:35.753Z,99.90
2019-04-07T04:28:05.019Z,99.90
2019-04-07T04:30:34.214Z,99.90
2019-04-07T04:33:03.964Z,99.90
2019-04-07T04:35:33.863Z,99.90
2019-04-07T04:38:20.715Z,99.90
2019-04-07T04:40:50.571Z,99.90
2019-04-07T04:43:19.893Z,99.90
2019-04-07T04:45:49.055Z,99.90
2019-04-07T04:48:18.202Z,99.90
2019-04-07T04:51:06.677Z,99.90
2019-04-07T04:53:36.747Z,99.90
2019-04-07T04:56:05.943Z,99.90
2019-04-07T04:58:35.956Z,99.90
2019-04-07T05:01:06.261Z,99.90
2019-04-07T05:03:36.211Z,99.90
2019-04-07T05:06:05.468Z,99.90
2019-04-07T05:08:34.627Z,99.90
2019-04-07T05:11:04.352Z,99.90
2019-04-07T05:13:34.146Z,99.90
2019-04-07T05:16:03.768Z,99.90
2019-04-07T05:18:33.268Z,99.90
2019-04-07T05:21:03.092Z,99.90
2019-04-07T05:23:40.645Z,99.90
2019-04-07T05:26:10.093Z,99.90
2019-04-07T05:28:39.604Z,99.90
2019-04-07T05:31:09.011Z,99.90
2019-04-07T05:33:38.216Z,99.90
2019-04-07T05:36:08.101Z,99.90
2019-04-07T05:38:37.933Z,99.90
2019-04-07T05:41:07.564Z,99.90
2019-04-07T05:43:36.974Z,99.90
2019-04-07T05:46:08.012Z,99.90
2019-04-07T05:48:37.146Z,99.90
2019-04-07T05:51:07.149Z,99.90
2019-04-07T05:53:36.429Z,99.90
2019-04-07T05:56:06.095Z,99.90
2019-04-07T05:58:38.684Z,99.90
2019-04-07T06:01:06.642Z,99.90
2019-04-07T06:03:41.237Z,99.90
2019-04-07T06:06:06.641Z,99.90
2019-04-07T06:08:38.899Z,99.90
2019-04-07T06:11:06.559Z,99.90
2019-04-07T06:13:35.631Z,99.90
2019-04-07T06:16:05.341Z,99.90
2019-04-07T06:18:34.574Z,99.90
2019-04-07T06:21:03.915Z,99.90
2019-04-07T06:23:33.198Z,99.90
2019-04-07T06:26:03.245Z,99.90
2019-04-07T06:28:32.679Z,99.90
2019-04-07T06:31:02.299Z,99.90
2019-04-07T06:33:32.375Z,99.90
2019-04-07T06:36:01.474Z,99.90
2019-04-07T06:38:34.616Z,99.90
2019-04-07T06:41:02.870Z,99.90
2019-04-07T06:43:35.695Z,99.90
2019-04-07T06:46:22.667Z,99.90
2019-04-07T06:49:20.695Z,99.90
2019-04-07T06:52:04.661Z,99.90
2019-04-07T06:54:55.690Z,99.90
2019-04-07T06:57:40.319Z,99.90
2019-04-07T07:00:31.803Z,99.90
2019-04-07T07:03:22.726Z,99.90
2019-04-07T07:06:16.476Z,99.90
2019-04-07T07:08:54.098Z,99.90
2019-04-07T07:11:43.062Z,99.90
2019-04-07T07:14:32.910Z,99.90
2019-04-07T07:17:05.356Z,99.90
2019-04-07T07:19:57.422Z,99.90
2019-04-07T07:22:40.257Z,99.90
2019-04-07T07:25:10.330Z,99.90
2019-04-07T07:27:40.816Z,99.90
2019-04-07T07:30:10.623Z,99.90
2019-04-07T07:32:39.959Z,99.90
2019-04-07T07:35:12.613Z,99.90
2019-04-07T07:37:40.271Z,99.90
2019-04-07T07:40:12.419Z,99.90
2019-04-07T07:42:44.098Z,99.90
2019-04-07T07:45:13.998Z,99.90
2019-04-07T07:47:43.877Z,99.90
2019-04-07T07:50:13.558Z,99.90
2019-04-07T07:52:43.126Z,99.90
2019-04-07T07:55:19.716Z,99.90
2019-04-07T07:57:49.201Z,99.90
2019-04-07T08:00:19.827Z,99.90
2019-04-07T08:02:51.448Z,99.90
2019-04-07T08:05:19.913Z,99.90
2019-04-07T08:07:50.529Z,99.90
2019-04-07T08:10:20.355Z,99.90
2019-04-07T08:12:50.861Z,99.90
2019-04-07T08:15:23.522Z,99.90
2019-04-07T08:17:50.929Z,99.90
2019-04-07T08:20:24.281Z,99.90
2019-04-07T08:22:54.001Z,99.90
2019-04-07T08:25:24.757Z,99.90
2019-04-07T08:27:54.252Z,99.90
2019-04-07T08:30:23.796Z,99.90
2019-04-07T08:32:53.366Z,99.90
2019-04-07T08:35:24.336Z,99.90
2019-04-07T08:37:54.684Z,99.90
2019-04-07T08:40:24.386Z,99.90
2019-04-07T08:42:53.626Z,99.90
2019-04-07T08:45:23.080Z,99.90
2019-04-07T08:47:52.844Z,99.90
2019-04-07T08:50:32.055Z,99.90
2019-04-07T08:53:02.118Z,99.90
2019-04-07T08:55:31.311Z,99.90
2019-04-07T08:58:05.530Z,99.90
2019-04-07T09:00:37.230Z,99.90
2019-04-07T09:03:11.467Z,99.90
2019-04-07T09:05:37.500Z,99.90
2019-04-07T09:08:07.410Z,99.90
2019-04-07T09:11:07.893Z,99.90
2019-04-07T09:13:37.427Z,99.90
2019-04-07T09:16:25.615Z,99.90
2019-04-07T09:19:16.535Z,99.90
2019-04-07T09:21:52.536Z,99.90
2019-04-07T09:24:41.568Z,99.90
2019-04-07T09:27:32.975Z,99.90
2019-04-07T09:30:17.913Z,99.40
2019-04-07T09:33:06.087Z,99.40
2019-04-07T09:35:59.254Z,99.50
2019-04-07T09:39:03.834Z,99.00
2019-04-07T09:42:01.981Z,99.00
2019-04-07T09:45:08.984Z,99.80
2019-04-07T09:47:59.958Z,97.90
2019-04-07T09:50:54.400Z,98.10
2019-04-07T09:53:40.380Z,97.40
2019-04-07T09:56:19.002Z,97.60
2019-04-07T09:59:10.078Z,97.20
2019-04-07T10:02:06.253Z,96.50
2019-04-07T10:04:43.423Z,96.40
2019-04-07T10:07:51.858Z,96.90
2019-04-07T10:10:40.176Z,96.50
2019-04-07T10:13:32.491Z,96.00
2019-04-07T10:16:13.478Z,95.60
2019-04-07T10:19:14.117Z,95.50
2019-04-07T10:22:03.563Z,95.50
2019-04-07T10:24:44.779Z,95.60
2019-04-07T10:27:36.845Z,95.20
2019-04-07T10:30:27.074Z,94.90
2019-04-07T10:33:24.643Z,94.50
2019-04-07T10:36:21.696Z,94.30
2019-04-07T10:39:16.257Z,94.20
2019-04-07T10:42:20.145Z,93.80
2019-04-07T10:44:57.254Z,93.10
2019-04-07T10:47:44.808Z,93.50
2019-04-07T10:50:36.719Z,93.30
2019-04-07T10:53:23.608Z,92.40
2019-04-07T10:56:04.558Z,92.50
2019-04-07T10:59:26.709Z,92.20
2019-04-07T11:02:11.956Z,92.50
2019-04-07T11:04:57.334Z,92.20
2019-04-07T11:07:48.245Z,92.20
2019-04-07T11:10:35.448Z,92.20
2019-04-07T11:13:16.804Z,92.00
2019-04-07T11:16:20.624Z,92.20
2019-04-07T11:19:07.846Z,92.20
2019-04-07T11:21:44.204Z,91.50
2019-04-07T11:24:41.683Z,92.50
2019-04-07T11:27:42.539Z,91.60
2019-04-07T11:30:21.327Z,92.10
2019-04-07T11:33:08.135Z,91.80
2019-04-07T11:35:48.851Z,90.60
2019-04-07T11:38:31.046Z,90.80
2019-04-07T11:41:12.415Z,90.90
2019-04-07T11:43:51.439Z,90.70
2019-04-07T11:46:38.934Z,91.10
2019-04-07T11:49:30.223Z,90.80
2019-04-07T11:52:13.655Z,88.80
2019-04-07T11:55:02.200Z,88.50
2019-04-07T11:58:02.929Z,88.20
2019-04-07T12:00:47.329Z,88.60
2019-04-07T12:03:57.088Z,86.60
2019-04-07T12:06:36.480Z,85.60
2019-04-07T12:09:16.273Z,85.80
2019-04-07T12:11:57.256Z,85.70
2019-04-07T12:14:50.016Z,86.40
2019-04-07T12:17:42.069Z,86.20
2019-04-07T12:20:16.566Z,85.80
2019-04-07T12:23:01.639Z,85.80
2019-04-07T12:25:56.871Z,83.60
2019-04-07T12:28:47.572Z,82.10
2019-04-07T12:31:40.426Z,83.30
2019-04-07T12:34:48.883Z,81.00
2019-04-07T12:37:41.311Z,81.90
2019-04-07T12:40:28.056Z,82.00
2019-04-07T12:43:07.317Z,82.30
2019-04-07T12:46:02.429Z,81.20
2019-04-07T12:49:08.463Z,80.90
2019-04-07T12:51:53.060Z,80.90
2019-04-07T12:54:27.755Z,79.40
2019-04-07T12:57:15.255Z,78.70
2019-04-07T13:00:02.529Z,78.60
2019-04-07T13:02:54.972Z,79.40
2019-04-07T13:05:34.485Z,80.20
2019-04-07T13:08:33.716Z,81.00
2019-04-07T13:11:36.911Z,80.40
2019-04-07T13:14:22.539Z,80.40
2019-04-07T13:17:19.503Z,79.90
2019-04-07T13:20:21.539Z,79.60
2019-04-07T13:23:01.805Z,81.20
2019-04-07T13:25:37.450Z,79.70
2019-04-07T13:28:26.042Z,80.20
2019-04-07T13:31:05.890Z,78.90
2019-04-07T13:33:54.379Z,79.10
2019-04-07T13:36:43.605Z,77.60
2019-04-07T13:39:39.190Z,78.70
2019-04-07T13:42:28.003Z,78.20
2019-04-07T13:45:13.202Z,78.50
2019-04-07T13:48:02.580Z,78.60
2019-04-07T13:50:58.103Z,78.80
2019-04-07T13:53:50.182Z,79.30
2019-04-07T13:56:33.308Z,78.90
2019-04-07T13:59:20.477Z,79.70
2019-04-07T14:02:08.628Z,79.10
2019-04-07T14:05:07.729Z,80.10
2019-04-07T14:07:51.554Z,78.70
2019-04-07T14:10:38.287Z,78.20
2019-04-07T14:13:23.117Z,79.30
2019-04-07T14:16:21.232Z,79.80
2019-04-07T14:19:02.480Z,79.80
2019-04-07T14:21:54.530Z,78.70
2019-04-07T14:24:48.759Z,79.30
2019-04-07T14:27:26.265Z,78.60
2019-04-07T14:30:01.545Z,78.60
2019-04-07T14:33:07.883Z,77.70
2019-04-07T14:35:43.125Z,78.00
2019-04-07T14:38:21.263Z,77.70
2019-04-07T14:41:01.100Z,79.20
2019-04-07T14:43:47.563Z,78.50
2019-04-07T14:46:44.852Z,78.10
2019-04-07T14:49:23.889Z,78.60
2019-04-07T14:52:18.831Z,78.70
2019-04-07T14:54:59.930Z,78.70
2019-04-07T14:57:46.969Z,79.10
2019-04-07T15:00:42.784Z,78.70
2019-04-07T15:03:12.346Z,78.60
2019-04-07T15:05:45.009Z,78.00
2019-04-07T15:08:26.389Z,78.50
2019-04-07T15:10:59.955Z,79.30
2019-04-07T15:13:29.453Z,78.20
2019-04-07T15:15:58.641Z,78.20
2019-04-07T15:18:28.575Z,78.10
2019-04-07T15:20:57.786Z,79.30
2019-04-07T15:23:29.449Z,78.60
2019-04-07T15:25:58.002Z,79.20
2019-04-07T15:28:29.610Z,79.60
2019-04-07T15:30:58.803Z,79.80
2019-04-07T15:33:31.422Z,79.70
2019-04-07T15:35:59.232Z,79.90
2019-04-07T15:38:30.155Z,79.80
2019-04-07T15:41:09.106Z,79.60
2019-04-07T15:43:35.395Z,79.40
2019-04-07T15:46:05.397Z,80.60
2019-04-07T15:48:34.864Z,79.70
2019-04-07T15:51:23.786Z,79.80
2019-04-07T15:54:13.513Z,79.30
2019-04-07T15:57:03.637Z,80.00
2019-04-07T15:59:46.100Z,79.70
2019-04-07T16:02:27.550Z,79.30
2019-04-07T16:05:09.407Z,80.40
2019-04-07T16:07:53.144Z,80.50
2019-04-07T16:10:33.741Z,81.70
2019-04-07T16:13:15.437Z,80.50
2019-04-07T16:15:56.366Z,81.90
2019-04-07T16:18:40.239Z,81.10
2019-04-07T16:21:20.723Z,82.30
2019-04-07T16:26:44.389Z,81.50
2019-04-07T16:29:17.786Z,82.20
2019-04-07T16:32:03.846Z,81.50
2019-04-07T16:34:44.869Z,81.80
2019-04-07T16:37:29.110Z,81.90
2019-04-07T16:40:10.543Z,82.40
2019-04-07T16:43:04.785Z,82.70
2019-04-07T16:45:33.956Z,81.90
2019-04-07T16:48:14.812Z,82.60
2019-04-07T16:50:57.214Z,82.70
2019-04-07T16:53:40.703Z,83.60
2019-04-07T16:56:22.013Z,82.30
2019-04-07T16:59:02.963Z,82.10
2019-04-07T17:01:43.705Z,82.80
2019-04-07T17:04:24.592Z,83.30
2019-04-07T17:07:12.047Z,83.50
2019-04-07T17:09:49.452Z,83.90
2019-04-07T17:12:31.260Z,84.20
2019-04-07T17:15:13.527Z,84.30
2019-04-07T17:17:54.737Z,83.80
2019-04-07T17:20:37.661Z,84.70
2019-04-07T17:23:21.500Z,84.00
2019-04-07T17:26:03.900Z,84.60
2019-04-07T17:28:46.194Z,84.20
2019-04-07T17:31:29.876Z,86.00
2019-04-07T17:34:11.665Z,85.80
2019-04-07T17:36:55.973Z,85.60
2019-04-07T17:39:40.506Z,85.40
2019-04-07T17:42:25.839Z,86.20
2019-04-07T17:45:23.592Z,87.00
2019-04-07T17:48:12.782Z,85.70
2019-04-07T17:51:10.108Z,86.20
2019-04-07T17:54:21.289Z,86.90
2019-04-07T17:57:27.477Z,87.00
2019-04-07T18:00:34.907Z,88.30
2019-04-07T18:03:44.043Z,89.30
2019-04-07T18:06:42.881Z,89.90
2019-04-07T18:13:08.364Z,90.00
2019-04-07T18:16:09.466Z,90.40
2019-04-07T18:19:16.636Z,90.70
2019-04-07T18:22:20.444Z,91.20
2019-04-07T18:25:07.164Z,91.50
2019-04-07T18:28:10.209Z,91.40
2019-04-07T18:31:13.267Z,91.70
2019-04-07T18:34:15.368Z,91.90
2019-04-07T18:37:09.791Z,91.90
2019-04-07T18:40:09.252Z,92.10
2019-04-07T18:42:56.660Z,92.30
2019-04-07T18:45:57.741Z,92.40
2019-04-07T18:49:03.223Z,92.70
2019-04-07T18:52:02.201Z,92.90
2019-04-07T18:55:05.755Z,92.90
2019-04-07T18:58:03.609Z,92.80
2019-04-07T19:01:00.762Z,92.80
2019-04-07T19:03:59.191Z,92.90
2019-04-07T19:07:03.064Z,92.90
2019-04-07T19:10:09.407Z,93.10
2019-04-07T19:13:05.669Z,93.20
2019-04-07T19:15:53.764Z,92.90
2019-04-07T19:18:43.575Z,93.20
2019-04-07T19:21:48.194Z,93.20
2019-04-07T19:24:49.481Z,93.30
2019-04-07T19:27:49.163Z,93.30
2019-04-07T19:30:45.372Z,93.10
2019-04-07T19:33:51.259Z,93.30
2019-04-07T19:36:52.176Z,93.50
2019-04-07T19:39:45.401Z,93.60
2019-04-07T19:42:48.200Z,93.80
2019-04-07T19:45:50.118Z,94.00
2019-04-07T19:48:50.745Z,94.20
2019-04-07T19:51:50.831Z,94.20
2019-04-07T19:54:39.949Z,94.50
2019-04-07T19:57:29.847Z,94.10
2019-04-07T20:00:37.798Z,94.10
2019-04-07T20:03:45.360Z,94.20
2019-04-07T20:06:56.364Z,94.00
2019-04-07T20:10:01.838Z,94.10
2019-04-07T20:12:58.280Z,94.70
2019-04-07T20:15:38.967Z,94.50
2019-04-07T20:18:45.966Z,94.80
2019-04-07T20:21:55.829Z,94.80
2019-04-07T20:24:36.719Z,95.10
2019-04-07T20:27:43.369Z,95.00
2019-04-07T20:30:37.829Z,94.80
2019-04-07T20:33:34.339Z,94.40
2019-04-07T20:36:42.355Z,94.20
2019-04-07T20:39:49.875Z,94.20
2019-04-07T20:42:53.575Z,94.20
2019-04-07T20:46:02.446Z,94.00
2019-04-07T20:49:09.839Z,94.20
2019-04-07T20:52:10.386Z,94.50
2019-04-07T20:55:11.945Z,94.70
2019-04-07T20:58:16.282Z,94.90
2019-04-07T21:01:09.327Z,95.00
2019-04-07T21:03:58.065Z,95.20
2019-04-07T21:06:55.143Z,95.60
2019-04-07T21:09:43.786Z,95.70
2019-04-07T21:12:33.520Z,96.00
2019-04-07T21:15:41.159Z,96.40
2019-04-07T21:18:48.972Z,96.70
2019-04-07T21:21:56.311Z,97.20
2019-04-07T21:25:03.947Z,97.60
2019-04-07T21:28:06.184Z,98.20
2019-04-07T21:30:58.168Z,99.00
2019-04-07T21:33:53.230Z,99.10
2019-04-07T21:36:46.348Z,99.60
2019-04-07T21:39:43.408Z,99.90
2019-04-07T21:42:35.866Z,99.90
2019-04-07T21:45:40.985Z,99.90
2019-04-07T21:48:39.170Z,99.90
2019-04-07T21:51:35.813Z,99.90
2019-04-07T21:54:39.170Z,99.90
2019-04-07T21:57:32.564Z,99.90
2019-04-07T22:00:20.940Z,99.90
2019-04-07T22:03:29.674Z,99.90
2019-04-07T22:06:37.245Z,99.90
2019-04-07T22:09:30.291Z,99.90
2019-04-07T22:12:19.668Z,99.90
2019-04-07T22:15:11.672Z,99.90
2019-04-07T22:17:58.434Z,99.90
2019-04-07T22:20:47.878Z,99.90
2019-04-07T22:23:36.825Z,99.90
2019-04-07T22:26:19.294Z,99.90
2019-04-07T22:29:03.162Z,99.90
2019-04-07T22:31:47.855Z,99.90
2019-04-07T22:34:31.458Z,99.90
2019-04-07T22:37:12.249Z,99.90
2019-04-07T22:39:53.532Z,99.90
2019-04-07T22:42:35.087Z,99.90
2019-04-07T22:45:16.479Z,99.90
2019-04-07T22:47:57.266Z,99.90
2019-04-07T22:50:38.841Z,99.90
2019-04-07T22:53:22.375Z,99.90
2019-04-07T22:56:06.379Z,99.90
2019-04-07T22:58:46.548Z,99.90
2019-04-07T23:01:27.471Z,99.90
2019-04-07T23:04:08.039Z,99.90
2019-04-07T23:06:48.852Z,99.90
2019-04-07T23:09:31.364Z,99.90
2019-04-07T23:12:12.636Z,99.90
2019-04-07T23:14:53.911Z,99.90
2019-04-07T23:17:35.155Z,99.90
2019-04-07T23:20:17.081Z,99.90
2019-04-07T23:22:58.370Z,99.90
2019-04-07T23:25:39.604Z,99.90
2019-04-07T23:28:20.875Z,99.90
2019-04-07T23:31:01.447Z,99.90
2019-04-07T23:33:42.079Z,99.90
2019-04-07T23:36:22.715Z,99.90
2019-04-07T23:39:04.035Z,99.90
2019-04-07T23:41:45.640Z,99.90
2019-04-07T23:44:27.707Z,99.90
2019-04-07T23:47:08.839Z,99.90
2019-04-07T23:49:50.188Z,99.90
2019-04-07T23:52:31.403Z,99.90
2019-04-07T23:55:12.908Z,99.90
2019-04-07T23:57:54.260Z,99.90
